Time;durP1;ratioP1;P1;durP2;ratioP2;P2;SDS_P1;SDS_P2;PMS_P1;PMS_P2;Temp;Humidity;BMP_temperature;BMP_pressure;BME280_temperature;BME280_humidity;BME280_pressure;Samples;Min_cycle;Max_cycle;Signal;HPM_P1;HPM_P2
2023/05/29 00:01:41;;;;;;;;;5.00;5.00;;;;;9.20;92.60;98607.75;4819996;28;102648;-71
2023/05/29 00:04:08;;;;;;;;;8.50;7.50;;;;;9.17;93.37;98614.38;4815685;28;103552;-70
2023/05/29 00:06:47;;;;;;;;;6.00;6.00;;;;;9.13;93.87;98618.50;4822676;28;102331;-71
2023/05/29 00:09:39;;;;;;;;;5.50;5.25;;;;;9.14;94.21;98619.34;4823428;29;107771;-71
2023/05/29 00:12:22;;;;;;;;;8.00;6.25;;;;;9.08;94.00;98615.53;4813290;28;103010;-71
2023/05/29 00:15:15;;;;;;;;;5.50;5.00;;;;;9.09;93.73;98609.13;4815152;29;102097;-70
2023/05/29 00:17:55;;;;;;;;;4.25;4.00;;;;;9.12;93.71;98610.59;4823119;28;102210;-71
2023/05/29 00:20:22;;;;;;;;;2.00;2.00;;;;;9.09;93.12;98605.59;4817825;29;104197;-71
2023/05/29 00:22:50;;;;;;;;;4.00;4.00;;;;;9.01;93.47;98602.97;4818730;28;102024;-71
2023/05/29 00:25:17;;;;;;;;;9.00;7.00;;;;;8.84;93.90;98597.00;4816226;28;108141;-70
2023/05/29 00:27:44;;;;;;;;;7.00;5.50;;;;;8.77;94.49;98610.41;4821070;28;102483;-70
2023/05/29 00:30:12;;;;;;;;;6.00;5.00;;;;;8.71;95.83;98600.38;4819111;28;103970;-70
2023/05/29 00:32:39;;;;;;;;;4.75;4.25;;;;;8.73;95.65;98590.25;4819076;28;102379;-70
2023/05/29 00:35:07;;;;;;;;;6.75;6.00;;;;;8.75;95.13;98593.59;4818713;28;103552;-71
2023/05/29 00:37:34;;;;;;;;;7.25;6.00;;;;;8.73;95.07;98587.56;4819550;28;102416;-71
2023/05/29 00:40:01;;;;;;;;;7.00;7.00;;;;;8.76;94.60;98592.56;4823461;28;104288;-71
2023/05/29 00:42:28;;;;;;;;;7.00;5.75;;;;;8.81;94.59;98609.00;4821019;28;103032;-71
2023/05/29 00:44:55;;;;;;;;;9.50;6.75;;;;;8.78;95.67;98593.19;4813681;28;103459;-71
2023/05/29 00:47:21;;;;;;;;;6.00;6.00;;;;;8.77;95.12;98586.16;4819747;28;102008;-71
2023/05/29 00:49:51;;;;;;;;;10.00;7.25;;;;;8.71;95.42;98595.00;4815798;28;104071;-71
2023/05/29 00:52:19;;;;;;;;;8.75;8.00;;;;;8.37;95.49;98546.28;4821965;28;101986;-71
2023/05/29 00:54:47;;;;;;;;;7.00;6.00;;;;;8.73;95.37;98600.19;4823220;28;102187;-71
2023/05/29 00:57:16;;;;;;;;;5.75;5.00;;;;;8.63;94.89;98591.56;4826413;28;102153;-71
2023/05/29 00:59:45;;;;;;;;;6.25;5.75;;;;;8.56;95.25;98594.16;4820777;28;104030;-71
2023/05/29 01:02:16;;;;;;;;;12.75;9.75;;;;;8.47;96.56;98587.22;4821904;28;102277;-71
2023/05/29 01:04:45;;;;;;;;;4.00;3.75;;;;;8.58;96.00;98592.13;4818670;28;102202;-71
2023/05/29 01:07:18;;;;;;;;;6.50;6.00;;;;;8.57;94.96;98585.06;4824527;28;102055;-71
2023/05/29 01:09:57;;;;;;;;;8.50;8.00;;;;;8.53;96.66;98594.56;4814054;28;103228;-71
2023/05/29 01:13:11;;;;;;;;;9.75;8.75;;;;;8.49;95.88;98598.66;4823688;28;102235;-71
2023/05/29 01:16:06;;;;;;;;;11.00;9.25;;;;;8.50;96.23;98594.94;4818599;28;102727;-71
2023/05/29 01:19:19;;;;;;;;;9.00;6.25;;;;;8.40;96.42;98589.84;4817915;28;101968;-71
2023/05/29 01:22:11;;;;;;;;;8.25;6.50;;;;;8.37;96.41;98589.38;4822069;28;109023;-71
2023/05/29 01:24:50;;;;;;;;;5.50;5.50;;;;;8.35;96.72;98583.34;4819406;28;102251;-71
2023/05/29 01:27:21;;;;;;;;;5.00;5.00;;;;;8.33;96.29;98580.00;4820496;28;103157;-71
2023/05/29 01:29:51;;;;;;;;;9.25;7.50;;;;;8.28;97.70;98582.41;4824141;28;102466;-71
2023/05/29 01:32:20;;;;;;;;;9.50;8.50;;;;;8.31;96.54;98584.72;4817785;28;108819;-71
2023/05/29 01:34:47;;;;;;;;;6.00;4.75;;;;;8.33;96.36;98578.13;4821806;28;101991;-70
2023/05/29 01:37:14;;;;;;;;;5.00;4.00;;;;;8.39;95.79;98584.63;4821129;29;102451;-70
2023/05/29 01:39:41;;;;;;;;;5.00;3.00;;;;;8.40;95.29;98580.91;4820453;28;102122;-70
2023/05/29 01:42:08;;;;;;;;;4.00;4.00;;;;;8.33;95.83;98580.81;4821942;28;104310;-70
2023/05/29 01:44:37;;;;;;;;;3.00;3.00;;;;;8.39;95.58;98587.31;4819222;28;102363;-70
2023/05/29 01:47:05;;;;;;;;;3.00;2.00;;;;;8.33;96.85;98580.00;4822856;28;102260;-70
2023/05/29 01:49:33;;;;;;;;;5.00;5.00;;;;;8.18;97.75;98576.44;4822473;28;102243;-71
2023/05/29 01:52:00;;;;;;;;;4.75;4.00;;;;;8.21;97.48;98582.28;4821747;29;110553;-71
2023/05/29 01:54:27;;;;;;;;;4.25;4.25;;;;;8.18;97.01;98579.97;4821822;29;102298;-71
2023/05/29 01:56:55;;;;;;;;;4.50;4.00;;;;;8.19;97.58;98575.44;4820948;29;102085;-71
2023/05/29 01:59:22;;;;;;;;;7.25;3.00;;;;;8.22;96.83;98575.88;4823614;28;102353;-71
2023/05/29 02:01:49;;;;;;;;;3.75;2.75;;;;;8.24;96.47;98578.41;4823943;29;104032;-72
2023/05/29 02:04:16;;;;;;;;;2.50;2.50;;;;;8.28;95.54;98567.06;4823715;28;102281;-71
2023/05/29 02:06:43;;;;;;;;;3.00;2.25;;;;;8.32;95.21;98567.56;4819311;29;102489;-71
2023/05/29 02:09:10;;;;;;;;;2.75;1.75;;;;;8.35;94.91;98569.88;4823644;28;102225;-71
2023/05/29 02:11:37;;;;;;;;;1.00;1.00;;;;;8.32;94.55;98583.72;4823822;28;104028;-71
2023/05/29 02:14:04;;;;;;;;;2.50;1.25;;;;;8.28;94.74;98575.16;4821087;28;103133;-72
2023/05/29 02:16:33;;;;;;;;;1.00;1.00;;;;;8.27;94.88;98572.63;4824055;28;102059;-71
2023/05/29 02:19:02;;;;;;;;;3.00;1.00;;;;;8.15;95.50;98568.75;4822663;29;102261;-72
2023/05/29 02:21:29;;;;;;;;;1.00;1.00;;;;;8.22;94.67;98577.75;4821265;28;104111;-71
2023/05/29 02:23:56;;;;;;;;;1.00;0.00;;;;;8.20;94.72;98569.00;4820471;29;102243;-71
2023/05/29 02:26:23;;;;;;;;;1.00;1.00;;;;;8.13;93.57;98565.41;4822083;29;102038;-71
2023/05/29 02:28:50;;;;;;;;;2.00;2.00;;;;;8.10;92.98;98576.56;4819013;28;102308;-71
2023/05/29 02:31:17;;;;;;;;;1.00;1.00;;;;;8.05;92.89;98566.34;4823041;28;104898;-71
2023/05/29 02:33:44;;;;;;;;;2.50;2.00;;;;;7.90;95.00;98565.47;4818655;28;106893;-71
2023/05/29 02:36:12;;;;;;;;;0.75;0.75;;;;;7.83;96.50;98565.41;4820116;29;101918;-71
2023/05/29 02:38:40;;;;;;;;;1.00;1.00;;;;;7.78;96.60;98565.13;4824349;28;102111;-71
2023/05/29 02:41:07;;;;;;;;;2.00;2.00;;;;;7.82;95.14;98568.28;4822959;28;104275;-71
2023/05/29 02:43:34;;;;;;;;;2.00;2.00;;;;;7.81;95.47;98562.03;4824832;28;102163;-71
2023/05/29 02:46:01;;;;;;;;;1.50;1.50;;;;;7.82;95.89;98563.72;4825379;28;102071;-71
2023/05/29 02:48:29;;;;;;;;;0.50;0.50;;;;;7.80;95.81;98554.97;4819953;28;102947;-71
2023/05/29 02:50:56;;;;;;;;;2.25;0.50;;;;;7.77;97.01;98568.81;4821909;28;104325;-71
2023/05/29 02:53:23;;;;;;;;;1.00;0.75;;;;;7.72;97.78;98556.94;4817762;28;102245;-71
2023/05/29 02:55:51;;;;;;;;;1.75;1.75;;;;;7.68;98.99;98555.63;4819721;28;101961;-71
2023/05/29 02:58:18;;;;;;;;;3.00;2.25;;;;;7.60;100.00;98553.88;4821119;28;102332;-71
2023/05/29 03:00:46;;;;;;;;;2.50;2.50;;;;;7.63;100.00;98542.72;4820043;28;104156;-71
2023/05/29 03:03:13;;;;;;;;;3.25;2.75;;;;;7.65;100.00;98550.63;4797780;28;102449;-71
2023/05/29 03:05:40;;;;;;;;;3.00;3.00;;;;;7.60;100.00;98543.09;4820318;28;101991;-71
2023/05/29 03:08:07;;;;;;;;;4.00;4.00;;;;;7.63;100.00;98531.97;4822686;28;102400;-71
2023/05/29 03:10:34;;;;;;;;;3.25;2.00;;;;;7.75;100.00;98541.25;4821460;28;104054;-71
2023/05/29 03:13:01;;;;;;;;;4.25;3.00;;;;;7.76;99.27;98537.53;4820891;28;101815;-72
2023/05/29 03:15:28;;;;;;;;;3.00;2.00;;;;;7.83;98.11;98541.19;4819874;29;102316;-71
2023/05/29 03:17:55;;;;;;;;;4.50;3.00;;;;;7.71;99.34;98534.56;4822132;29;102281;-71
2023/05/29 03:20:23;;;;;;;;;5.00;4.00;;;;;7.59;100.00;98546.81;4817207;29;104215;-71
2023/05/29 03:22:50;;;;;;;;;3.00;3.00;;;;;7.65;100.00;98546.09;4817247;29;101987;-71
2023/05/29 03:25:19;;;;;;;;;6.00;6.00;;;;;7.67;100.00;98549.41;4820185;29;101842;-72
2023/05/29 03:27:46;;;;;;;;;4.00;4.00;;;;;7.76;100.00;98553.69;4819205;29;102100;-72
2023/05/29 03:30:14;;;;;;;;;4.00;4.00;;;;;7.88;100.00;98557.59;4817327;29;104002;-72
2023/05/29 03:32:40;;;;;;;;;2.75;2.75;;;;;8.03;100.00;98560.28;4805381;28;102988;-72
2023/05/29 03:35:08;;;;;;;;;2.25;2.00;;;;;8.14;99.82;98559.00;4801597;28;102106;-72
2023/05/29 03:37:35;;;;;;;;;2.25;2.25;;;;;8.27;99.11;98561.84;4803701;29;102401;-71
2023/05/29 03:40:03;;;;;;;;;2.00;2.00;;;;;8.39;98.09;98550.44;4805807;29;104036;-71
2023/05/29 03:42:33;;;;;;;;;2.00;2.00;;;;;8.50;97.34;98551.81;4805574;28;102358;-71
2023/05/29 03:45:00;;;;;;;;;2.25;2.00;;;;;8.61;95.97;98555.88;4807031;28;101988;-71
2023/05/29 03:47:27;;;;;;;;;1.50;1.50;;;;;8.72;95.76;98560.78;4803819;28;101939;-71
2023/05/29 03:49:55;;;;;;;;;2.00;2.00;;;;;8.64;96.25;98560.91;4804714;28;104003;-72
2023/05/29 03:52:22;;;;;;;;;9.25;6.00;;;;;8.51;97.95;98562.41;4804242;29;103324;-71
2023/05/29 03:54:49;;;;;;;;;7.25;7.00;;;;;8.48;98.16;98562.78;4808203;28;102080;-71
2023/05/29 03:57:16;;;;;;;;;10.25;9.25;;;;;8.47;98.04;98566.50;4807751;29;102519;-71
2023/05/29 03:59:43;;;;;;;;;8.50;8.00;;;;;8.53;97.78;98567.59;4804432;29;103969;-72
2023/05/29 04:02:10;;;;;;;;;12.00;8.75;;;;;8.63;97.54;98561.94;4805988;28;102041;-71
2023/05/29 04:04:39;;;;;;;;;8.25;7.00;;;;;8.67;96.22;98568.59;4804598;29;106758;-71
2023/05/29 04:07:06;;;;;;;;;8.00;8.00;;;;;8.75;98.13;98571.19;4804490;28;102346;-71
2023/05/29 04:09:33;;;;;;;;;5.00;5.00;;;;;8.86;100.00;98570.69;4807044;29;104145;-71
2023/05/29 04:12:05;;;;;;;;;8.25;6.50;;;;;8.95;97.86;98561.47;4805079;29;102421;-71
2023/05/29 04:14:32;;;;;;;;;5.00;5.00;;;;;9.12;97.79;98567.44;4801865;28;102342;-71
2023/05/29 04:16:59;;;;;;;;;5.00;4.00;;;;;9.28;97.17;98567.16;4803763;29;102798;-71
2023/05/29 04:19:26;;;;;;;;;4.25;4.00;;;;;9.47;94.98;98569.19;4803463;29;104174;-71
2023/05/29 04:21:53;;;;;;;;;6.50;4.00;;;;;9.69;95.88;98573.53;4803525;28;102266;-71
2023/05/29 04:24:20;;;;;;;;;5.25;5.25;;;;;9.88;95.11;98560.38;4804235;29;102228;-71
2023/05/29 04:26:47;;;;;;;;;4.50;3.00;;;;;10.05;93.56;98572.53;4803275;29;103595;-71
2023/05/29 04:29:14;;;;;;;;;4.00;4.00;;;;;10.25;93.44;98578.94;4804855;29;103980;-71
2023/05/29 04:31:41;;;;;;;;;3.75;3.00;;;;;10.44;93.06;98574.66;4809317;28;101903;-71
2023/05/29 04:34:08;;;;;;;;;4.00;3.00;;;;;10.74;90.87;98581.44;4820889;28;102331;-71
2023/05/29 04:36:38;;;;;;;;;4.00;4.00;;;;;11.20;88.98;98565.34;4821852;28;102337;-71
2023/05/29 04:39:07;;;;;;;;;3.50;2.75;;;;;11.55;85.75;98568.69;4821295;29;108780;-71
2023/05/29 04:41:35;;;;;;;;;4.00;2.00;;;;;11.56;83.68;98576.63;4824825;29;102280;-71
2023/05/29 04:44:03;;;;;;;;;2.50;2.50;;;;;11.52;85.99;98567.25;4825550;29;102265;-71
2023/05/29 04:46:30;;;;;;;;;5.00;5.00;;;;;11.38;84.71;98570.97;4827240;29;102012;-71
2023/05/29 04:48:57;;;;;;;;;7.75;5.00;;;;;11.37;86.42;98577.44;4823247;28;104056;-71
2023/05/29 04:51:25;;;;;;;;;7.00;6.00;;;;;11.52;85.72;98577.25;4822232;28;103958;-71
2023/05/29 04:53:52;;;;;;;;;6.50;5.50;;;;;11.75;84.58;98574.16;4822975;29;102225;-71
2023/05/29 04:56:20;;;;;;;;;5.75;5.00;;;;;11.87;84.53;98577.88;4819749;28;102478;-71
2023/05/29 04:58:47;;;;;;;;;6.50;6.25;;;;;12.08;83.22;98585.78;4820942;29;104132;-71
2023/05/29 05:01:14;;;;;;;;;7.25;6.00;;;;;12.11;83.56;98589.97;4823438;28;102278;-71
2023/05/29 05:03:41;;;;;;;;;5.75;5.00;;;;;12.25;83.00;98592.41;4821569;28;102449;-71
2023/05/29 05:06:10;;;;;;;;;7.00;7.00;;;;;12.44;82.63;98580.69;4823090;29;102094;-71
2023/05/29 05:08:37;;;;;;;;;7.75;7.00;;;;;12.76;79.31;98583.47;4817574;28;104064;-71
2023/05/29 05:11:06;;;;;;;;;4.50;4.00;;;;;12.85;79.02;98582.19;4822924;28;102359;-71
2023/05/29 05:13:33;;;;;;;;;7.00;5.75;;;;;13.23;79.78;98585.78;4823504;29;101941;-72
2023/05/29 05:16:01;;;;;;;;;5.25;4.75;;;;;13.38;76.69;98589.00;4823498;29;102156;-71
2023/05/29 05:18:28;;;;;;;;;6.00;5.00;;;;;13.93;77.54;98591.94;4821288;29;104045;-71
2023/05/29 05:20:55;;;;;;;;;8.00;7.00;;;;;13.94;75.22;98588.16;4823620;29;102030;-71
2023/05/29 05:23:22;;;;;;;;;5.50;4.50;;;;;14.20;71.90;98589.78;4823508;29;102222;-71
2023/05/29 05:25:49;;;;;;;;;5.00;4.00;;;;;14.39;74.48;98580.66;4821771;29;102188;-71
2023/05/29 05:28:17;;;;;;;;;4.25;3.00;;;;;14.48;70.76;98590.16;4820482;28;104087;-71
2023/05/29 05:30:43;;;;;;;;;6.00;5.75;;;;;14.27;73.45;98591.38;4822488;28;102133;-71
2023/05/29 05:33:11;;;;;;;;;8.75;6.00;;;;;14.22;73.43;98585.81;4822184;28;102313;-71
2023/05/29 05:35:38;;;;;;;;;6.00;6.00;;;;;14.26;73.71;98584.31;4819413;29;103165;-71
2023/05/29 05:38:06;;;;;;;;;7.75;7.25;;;;;14.24;70.69;98601.88;4822155;28;104086;-71
2023/05/29 05:40:33;;;;;;;;;12.75;11.75;;;;;14.36;71.77;98591.97;4823617;29;101836;-72
2023/05/29 05:43:00;;;;;;;;;15.50;13.25;;;;;14.34;69.56;98604.94;4821837;28;102026;-71
2023/05/29 05:45:27;;;;;;;;;18.50;16.50;;;;;14.43;72.45;98600.06;4824343;28;102214;-72
2023/05/29 05:47:55;;;;;;;;;12.00;10.50;;;;;14.61;71.33;98595.47;4821298;28;104051;-72
2023/05/29 05:50:22;;;;;;;;;12.00;11.00;;;;;14.53;70.80;98606.66;4823580;28;101872;-71
2023/05/29 05:52:49;;;;;;;;;7.00;7.00;;;;;14.56;70.91;98597.19;4820829;28;101834;-71
2023/05/29 05:55:16;;;;;;;;;15.50;11.75;;;;;14.51;69.86;98605.19;4823092;28;102011;-71
2023/05/29 05:57:43;;;;;;;;;7.50;6.75;;;;;14.71;70.46;98603.09;4820729;28;104072;-71
2023/05/29 06:00:12;;;;;;;;;7.50;6.00;;;;;14.69;68.76;98606.03;4821894;29;102245;-71
2023/05/29 06:02:42;;;;;;;;;8.50;6.00;;;;;14.98;69.34;98612.59;4820560;28;101998;-72
2023/05/29 06:05:09;;;;;;;;;5.00;4.00;;;;;15.09;68.61;98611.81;4821620;28;103262;-71
2023/05/29 06:07:37;;;;;;;;;5.50;5.00;;;;;15.12;69.11;98608.66;4821271;29;104010;-71
2023/05/29 06:10:04;;;;;;;;;4.00;3.25;;;;;15.48;66.97;98602.28;4822853;28;102296;-71
2023/05/29 06:12:31;;;;;;;;;3.00;3.00;;;;;15.53;65.74;98599.72;4824094;28;107062;-71
2023/05/29 06:14:58;;;;;;;;;5.50;4.50;;;;;15.80;66.84;98611.03;4823582;28;102343;-71
2023/05/29 06:17:26;;;;;;;;;4.00;4.00;;;;;15.71;66.31;98612.44;4818675;29;104336;-71
2023/05/29 06:19:53;;;;;;;;;5.00;4.00;;;;;15.82;65.58;98603.44;4820644;29;102001;-72
2023/05/29 06:22:20;;;;;;;;;5.00;5.00;;;;;15.95;67.10;98610.56;4819266;28;102736;-71
2023/05/29 06:24:47;;;;;;;;;6.00;5.75;;;;;15.85;65.77;98619.31;4824004;28;102081;-71
2023/05/29 06:27:14;;;;;;;;;5.00;5.00;;;;;15.89;66.22;98615.09;4818657;28;103991;-71
2023/05/29 06:29:41;;;;;;;;;4.00;4.00;;;;;15.93;67.86;98613.56;4820167;28;102034;-71
2023/05/29 06:32:08;;;;;;;;;6.00;5.75;;;;;16.23;64.53;98620.78;4821632;28;102173;-71
2023/05/29 06:34:36;;;;;;;;;7.50;7.25;;;;;16.20;64.68;98622.13;4824041;29;102341;-71
2023/05/29 06:37:03;;;;;;;;;6.00;5.00;;;;;16.67;65.26;98622.94;4821320;28;108944;-70
2023/05/29 06:39:30;;;;;;;;;7.00;6.75;;;;;16.96;64.84;98621.13;4821925;28;102095;-70
2023/05/29 06:41:56;;;;;;;;;4.67;4.00;;;;;17.29;61.61;98623.94;4821145;28;102300;-70
2023/05/29 06:44:23;;;;;;;;;6.00;5.00;;;;;17.69;61.76;98618.47;4821816;28;102239;-70
2023/05/29 06:46:50;;;;;;;;;5.67;5.00;;;;;17.71;61.14;98629.97;4817197;29;103765;-70
2023/05/29 06:49:17;;;;;;;;;5.00;5.00;;;;;17.56;60.35;98631.59;4821858;28;102254;-70
2023/05/29 06:51:45;;;;;;;;;5.00;4.00;;;;;18.09;60.29;98639.41;4821756;28;102244;-70
2023/05/29 06:54:12;;;;;;;;;4.00;3.00;;;;;18.66;56.38;98643.59;4821328;28;102189;-70
2023/05/29 06:56:38;;;;;;;;;6.67;5.00;;;;;18.80;57.35;98637.75;4822026;28;103931;-70
2023/05/29 06:59:05;;;;;;;;;4.33;4.00;;;;;19.22;57.60;98633.38;4821789;29;102293;-70
2023/05/29 07:01:32;;;;;;;;;6.00;6.00;;;;;18.93;57.51;98640.13;4822347;29;101931;-70
2023/05/29 07:04:00;;;;;;;;;6.00;4.67;;;;;18.76;57.42;98642.91;4820596;28;102172;-70
2023/05/29 07:06:27;;;;;;;;;8.33;6.33;;;;;18.40;56.97;98636.06;4819285;29;104201;-70
2023/05/29 07:08:54;;;;;;;;;8.00;7.00;;;;;18.62;57.53;98642.44;4821801;29;101912;-70
2023/05/29 07:11:21;;;;;;;;;7.00;5.33;;;;;18.66;57.95;98638.13;4816014;28;102018;-71
2023/05/29 07:13:48;;;;;;;;;2.33;2.00;;;;;19.13;56.10;98646.72;4823356;28;102280;-71
2023/05/29 07:16:15;;;;;;;;;6.00;5.00;;;;;19.26;55.40;98641.94;4822352;28;104030;-71
2023/05/29 07:18:50;;;;;;;;;4.67;4.67;;;;;19.27;55.40;98646.34;4826611;28;102149;-71
2023/05/29 07:21:18;;;;;;;;;5.00;3.67;;;;;19.00;57.09;98638.06;4825184;28;101920;-70
2023/05/29 07:23:45;;;;;;;;;5.33;5.00;;;;;18.91;57.71;98645.06;4825568;29;102028;-70
2023/05/29 07:26:12;;;;;;;;;5.33;3.00;;;;;19.01;55.80;98640.50;4806836;29;103939;-70
2023/05/29 07:28:39;;;;;;;;;4.67;4.67;;;;;19.04;57.25;98650.16;4820498;29;102278;-70
2023/05/29 07:31:06;;;;;;;;;6.00;5.67;;;;;19.11;55.72;98648.88;4825276;28;101893;-70
2023/05/29 07:33:34;;;;;;;;;2.67;2.67;;;;;19.29;57.84;98649.63;4812635;28;102196;-70
2023/05/29 07:36:01;;;;;;;;;4.33;3.67;;;;;19.22;56.96;98658.06;4825507;28;110223;-70
2023/05/29 07:38:28;;;;;;;;;3.67;3.33;;;;;19.27;52.36;98649.06;4823797;28;101937;-70
2023/05/29 07:40:55;;;;;;;;;6.00;4.67;;;;;19.16;54.65;98648.94;4825331;29;102024;-70
2023/05/29 07:43:22;;;;;;;;;3.33;3.33;;;;;19.56;54.52;98651.34;4824414;28;102095;-71
2023/05/29 07:45:49;;;;;;;;;3.67;3.67;;;;;19.88;52.64;98645.09;4823732;28;104086;-70
2023/05/29 07:48:16;;;;;;;;;5.33;5.33;;;;;19.87;52.37;98646.19;4808115;29;102187;-70
2023/05/29 07:50:44;;;;;;;;;6.00;5.00;;;;;19.86;50.37;98655.50;4823084;29;102567;-71
2023/05/29 07:53:12;;;;;;;;;6.00;6.00;;;;;19.99;52.94;98657.84;4824240;28;102527;-71
2023/05/29 07:55:39;;;;;;;;;7.67;6.67;;;;;19.88;50.55;98651.41;4822472;28;104196;-70
2023/05/29 07:58:07;;;;;;;;;8.33;8.00;;;;;19.95;50.29;98646.53;4827126;29;102383;-71
2023/05/29 08:00:34;;;;;;;;;5.33;4.33;;;;;20.27;51.72;98643.78;4823653;29;101929;-71
2023/05/29 08:03:02;;;;;;;;;10.00;8.00;;;;;19.78;50.18;98653.22;4823203;29;101987;-70
2023/05/29 08:05:31;;;;;;;;;5.00;4.67;;;;;20.01;51.71;98641.91;4823475;28;104054;-70
2023/05/29 08:07:58;;;;;;;;;7.00;6.67;;;;;19.85;52.38;98649.19;4823089;29;102008;-70
2023/05/29 08:10:25;;;;;;;;;6.33;6.00;;;;;20.11;51.08;98650.25;4825071;29;102021;-70
2023/05/29 08:12:52;;;;;;;;;8.33;6.67;;;;;19.84;51.46;98650.28;4826828;28;102020;-70
2023/05/29 08:15:19;;;;;;;;;7.33;6.00;;;;;20.20;52.34;98645.94;4823489;29;104052;-70
2023/05/29 08:17:46;;;;;;;;;7.33;6.33;;;;;20.21;52.28;98647.59;4823882;29;102296;-70
2023/05/29 08:20:13;;;;;;;;;8.00;6.67;;;;;20.30;51.43;98646.06;4823244;29;102112;-72
2023/05/29 08:22:40;;;;;;;;;10.33;8.33;;;;;20.66;52.82;98641.66;4825763;28;102077;-69
2023/05/29 08:25:08;;;;;;;;;8.00;6.33;;;;;20.56;47.81;98638.81;4824811;28;104071;-71
2023/05/29 08:27:35;;;;;;;;;6.00;5.00;;;;;20.68;47.41;98638.63;4824589;28;102132;-70
2023/05/29 08:30:04;;;;;;;;;9.00;7.00;;;;;20.98;50.25;98641.56;4823110;29;103593;-70
2023/05/29 08:32:31;;;;;;;;;8.33;5.67;;;;;20.71;47.18;98643.59;4826195;28;101996;-70
2023/05/29 08:34:58;;;;;;;;;5.00;5.00;;;;;20.87;49.57;98645.34;4822055;28;104139;-70
2023/05/29 08:37:25;;;;;;;;;9.00;7.00;;;;;20.90;46.95;98642.03;4824076;29;101890;-70
2023/05/29 08:39:52;;;;;;;;;6.00;5.33;;;;;20.85;47.30;98625.53;4821548;28;102082;-70
2023/05/29 08:42:33;;;;;;;;;11.00;5.00;;;;;20.93;47.76;98641.53;4825171;28;102016;-70
2023/05/29 08:45:04;;;;;;;;;7.00;7.00;;;;;20.92;47.25;98635.19;4826323;29;104354;-70
2023/05/29 08:47:33;;;;;;;;;6.33;6.00;;;;;20.74;49.50;98638.41;4821248;29;101957;-70
2023/05/29 08:50:02;;;;;;;;;7.00;6.33;;;;;21.03;47.09;98644.31;4818986;29;102431;-70
2023/05/29 08:52:35;;;;;;;;;6.00;4.33;;;;;21.18;46.66;98644.41;4822065;29;102413;-70
2023/05/29 08:55:03;;;;;;;;;7.00;5.00;;;;;21.49;47.37;98636.28;4822194;28;104010;-70
2023/05/29 08:57:30;;;;;;;;;6.00;5.00;;;;;21.47;49.62;98620.06;4819655;29;102161;-70
2023/05/29 08:59:59;;;;;;;;;5.00;3.00;;;;;22.03;46.13;98632.00;4821567;28;102192;-71
2023/05/29 09:02:27;;;;;;;;;4.00;3.00;;;;;21.54;41.85;98639.88;4818848;28;101964;-70
2023/05/29 09:04:54;;;;;;;;;1.00;1.00;;;;;21.58;43.10;98631.91;4821681;29;104083;-70
2023/05/29 09:07:22;;;;;;;;;4.00;4.00;;;;;21.41;46.22;98642.31;4820881;28;102027;-70
2023/05/29 09:09:49;;;;;;;;;3.67;2.67;;;;;21.72;43.58;98642.13;4821060;29;102031;-70
2023/05/29 09:12:16;;;;;;;;;3.33;2.33;;;;;22.03;43.06;98632.00;4822358;29;102298;-70
2023/05/29 09:14:45;;;;;;;;;4.67;3.67;;;;;22.21;44.19;98634.22;4821887;29;104004;-73
2023/05/29 09:17:13;;;;;;;;;2.67;2.00;;;;;22.48;43.34;98619.31;4823252;28;102449;-70
2023/05/29 09:19:41;;;;;;;;;3.00;3.00;;;;;22.46;40.81;98622.38;4823663;29;102368;-69
2023/05/29 09:22:10;;;;;;;;;4.33;4.33;;;;;21.69;44.26;98634.41;4825707;29;102241;-70
2023/05/29 09:24:40;;;;;;;;;3.33;3.00;;;;;21.44;45.02;98639.00;4824003;29;108975;-71
2023/05/29 09:27:11;;;;;;;;;6.00;3.67;;;;;21.86;45.12;98638.84;4820199;29;102190;-70
2023/05/29 09:29:40;;;;;;;;;3.00;2.67;;;;;22.00;44.12;98638.06;4821395;29;101958;-70
2023/05/29 09:32:14;;;;;;;;;3.00;2.00;;;;;22.46;41.96;98619.63;4822555;28;102013;-71
2023/05/29 09:34:42;;;;;;;;;5.00;4.00;;;;;22.53;40.57;98633.09;4821056;28;108803;-70
2023/05/29 09:37:11;;;;;;;;;3.00;3.00;;;;;22.87;42.76;98627.84;4825282;29;101822;-70
2023/05/29 09:39:41;;;;;;;;;5.00;5.00;;;;;22.32;39.80;98625.97;4817489;28;102034;-69
2023/05/29 09:42:11;;;;;;;;;4.00;3.00;;;;;22.19;40.96;98636.44;4823993;29;102005;-70
2023/05/29 09:44:42;;;;;;;;;3.33;3.00;;;;;22.48;42.45;98619.31;4813765;29;104077;-70
2023/05/29 09:47:09;;;;;;;;;4.67;4.67;;;;;22.26;40.87;98619.63;4812303;29;102754;-70
2023/05/29 09:49:41;;;;;;;;;5.67;5.67;;;;;21.92;40.38;98627.56;4814721;29;102523;-70
2023/05/29 09:52:09;;;;;;;;;4.33;4.00;;;;;22.43;41.33;98624.81;4822512;29;102024;-70
2023/05/29 09:54:36;;;;;;;;;2.00;2.00;;;;;22.96;39.45;98637.19;4823184;29;104030;-71
2023/05/29 09:57:05;;;;;;;;;2.00;2.00;;;;;22.65;40.50;98630.84;4823320;28;102759;-70
2023/05/29 09:59:33;;;;;;;;;4.00;4.00;;;;;22.17;43.15;98613.00;4819881;29;102057;-71
2023/05/29 10:02:07;;;;;;;;;4.33;3.00;;;;;22.20;43.84;98634.47;4821456;29;102689;-70
2023/05/29 10:04:35;;;;;;;;;5.33;4.00;;;;;22.14;39.96;98630.94;4819629;29;104174;-70
2023/05/29 10:07:12;;;;;;;;;4.00;4.00;;;;;22.34;45.52;98626.50;4823966;29;102315;-70
2023/05/29 10:09:44;;;;;;;;;4.00;4.00;;;;;21.89;42.84;98627.28;4823781;29;101889;-72
2023/05/29 10:12:12;;;;;;;;;5.00;4.00;;;;;22.04;41.65;98628.16;4821210;28;102371;-70
2023/05/29 10:14:43;;;;;;;;;2.00;2.00;;;;;22.65;45.87;98628.09;4821483;28;104010;-70
2023/05/29 10:17:13;;;;;;;;;1.67;1.33;;;;;23.17;42.01;98632.41;4821065;28;102415;-71
2023/05/29 10:19:42;;;;;;;;;5.00;4.00;;;;;22.89;38.71;98629.19;4817947;28;102430;-71
2023/05/29 10:22:10;;;;;;;;;5.00;4.00;;;;;22.90;42.54;98622.56;4822579;29;102010;-69
2023/05/29 10:24:38;;;;;;;;;4.00;4.00;;;;;22.85;42.80;98630.84;4819264;29;104196;-71
2023/05/29 10:27:05;;;;;;;;;5.33;4.00;;;;;22.70;42.46;98628.13;4823976;28;102128;-68
2023/05/29 10:29:58;;;;;;;;;4.00;3.33;;;;;22.79;39.97;98620.13;4818562;28;103101;-71
2023/05/29 10:33:03;;;;;;;;;3.67;3.67;;;;;22.79;40.18;98633.91;4817065;28;102434;-70
2023/05/29 10:35:46;;;;;;;;;3.67;3.00;;;;;23.08;41.62;98624.72;4789155;28;108882;-71
2023/05/29 10:38:16;;;;;;;;;3.00;3.00;;;;;23.06;44.40;98626.94;4820983;28;102242;-70
2023/05/29 10:40:43;;;;;;;;;3.00;3.00;;;;;23.35;39.89;98618.81;4815166;28;102013;-71
2023/05/29 10:43:33;;;;;;;;;3.67;3.00;;;;;23.33;38.89;98614.66;4813120;29;102241;-71
2023/05/29 10:46:03;;;;;;;;;4.00;3.00;;;;;23.09;39.94;98614.53;4816635;28;108725;-71
2023/05/29 10:48:36;;;;;;;;;6.33;5.67;;;;;23.11;39.00;98613.13;4817504;29;101919;-71
2023/05/29 10:51:06;;;;;;;;;2.67;2.00;;;;;23.26;37.53;98611.41;4827235;29;102075;-71
2023/05/29 10:53:34;;;;;;;;;4.00;3.33;;;;;23.41;40.95;98614.09;4828530;28;102316;-72
2023/05/29 10:56:02;;;;;;;;;3.00;3.00;;;;;23.62;39.14;98601.84;4826939;28;104030;-70
2023/05/29 10:58:30;;;;;;;;;6.00;3.00;;;;;23.89;37.36;98602.22;4829555;28;102388;-70
2023/05/29 11:00:58;;;;;;;;;5.00;4.00;;;;;23.38;41.41;98609.13;4826830;28;102087;-70
2023/05/29 11:03:34;;;;;;;;;3.33;3.33;;;;;23.25;39.23;98607.81;4826841;28;102094;-70
2023/05/29 11:06:02;;;;;;;;;3.67;3.67;;;;;23.28;38.95;98603.69;4825344;28;104296;-70
2023/05/29 11:08:42;;;;;;;;;3.00;2.67;;;;;23.16;37.90;98608.69;4827848;28;102735;-71
2023/05/29 11:11:12;;;;;;;;;2.00;2.00;;;;;23.33;39.45;98600.88;4828980;29;102078;-70
2023/05/29 11:13:40;;;;;;;;;2.33;2.33;;;;;23.73;40.53;98605.41;4827285;28;102045;-71
2023/05/29 11:16:25;;;;;;;;;6.00;5.33;;;;;23.12;39.00;98597.41;4820992;28;104459;-70
2023/05/29 11:18:53;;;;;;;;;4.00;4.00;;;;;23.54;39.67;98599.72;4821524;28;106218;-71
2023/05/29 11:22:04;;;;;;;;;5.33;5.33;;;;;23.11;38.62;98606.78;4823218;28;102101;-70
2023/05/29 11:24:33;;;;;;;;;5.67;4.67;;;;;23.26;38.68;98597.63;4826832;28;101931;-70
2023/05/29 11:27:05;;;;;;;;;5.00;5.00;;;;;23.06;40.04;98604.03;4826237;29;104000;-70
2023/05/29 11:29:32;;;;;;;;;7.00;6.00;;;;;22.64;38.01;98596.16;4821322;29;104278;-71
2023/05/29 11:32:04;;;;;;;;;6.67;6.00;;;;;22.12;41.59;98597.31;4824151;29;101970;-70
2023/05/29 11:34:32;;;;;;;;;4.00;4.00;;;;;22.31;43.28;98600.34;4826208;28;107482;-70
2023/05/29 11:37:03;;;;;;;;;3.00;3.00;;;;;22.38;40.40;98597.31;4826151;28;104156;-70